EZY83HG LFRN-EGKK
Flight info
| Callsign | EZY83HG |
|---|---|
| Flight time | 0h 47m |
| Altitude | 28000 |
| Route | ATNIS T501 EKRAS UT507 REVTU UP88 VASUX |
| Aircraft | A319/M-SDE2E3FGIJ1RWXYZ/LB1 |
Departure
| Time | 2026-05-07 18:31 |
|---|---|
| Airport | Rennes-Saint-Jacques Airport (LFRN) |
Arrival
| Time | 2026-05-07 19:18 |
|---|---|
| Airport | London Gatwick Airport (EGKK) |
| Time | Latitude | Longitude | Altitude | Speed | Heading |
|---|---|---|---|---|---|
| 2026-05-07 18:03 | 48.06910 | -1.72731 | 133 ft | 0 kts | 224° |
| 2026-05-07 18:22 | 48.06925 | -1.72710 | 133 ft | 3 kts | 222° |
| 2026-05-07 18:22 | 48.06939 | -1.72691 | 133 ft | 3 kts | 222° |
| 2026-05-07 18:23 | 48.06953 | -1.72672 | 133 ft | 3 kts | 227° |
| 2026-05-07 18:23 | 48.06963 | -1.72651 | 133 ft | 3 kts | 257° |
| 2026-05-07 18:23 | 48.06966 | -1.72629 | 133 ft | 0 kts | 290° |
| 2026-05-07 18:25 | 48.06967 | -1.72635 | 133 ft | 2 kts | 284° |
| 2026-05-07 18:26 | 48.06972 | -1.72677 | 133 ft | 6 kts | 281° |
| 2026-05-07 18:26 | 48.06983 | -1.72763 | 133 ft | 11 kts | 281° |
| 2026-05-07 18:26 | 48.07000 | -1.72893 | 133 ft | 15 kts | 280° |
| 2026-05-07 18:26 | 48.07020 | -1.73058 | 133 ft | 16 kts | 281° |
| 2026-05-07 18:27 | 48.07042 | -1.73230 | 132 ft | 18 kts | 281° |
| 2026-05-07 18:27 | 48.07067 | -1.73423 | 129 ft | 19 kts | 281° |
| 2026-05-07 18:27 | 48.07157 | -1.73565 | 122 ft | 17 kts | 333° |
| 2026-05-07 18:27 | 48.07231 | -1.73625 | 121 ft | 19 kts | 319° |
| 2026-05-07 18:28 | 48.07281 | -1.73923 | 111 ft | 25 kts | 281° |
| 2026-05-07 18:28 | 48.07316 | -1.74201 | 102 ft | 29 kts | 281° |
| 2026-05-07 18:28 | 48.07317 | -1.74465 | 93 ft | 23 kts | 248° |
| 2026-05-07 18:28 | 48.07327 | -1.74588 | 87 ft | 11 kts | 340° |
| 2026-05-07 18:29 | 48.07357 | -1.74522 | 90 ft | 7 kts | 92° |
| 2026-05-07 18:29 | 48.07354 | -1.74502 | 94 ft | 0 kts | 101° |
| 2026-05-07 18:30 | 48.07353 | -1.74492 | 94 ft | 8 kts | 101° |
| 2026-05-07 18:30 | 48.07285 | -1.73951 | 108 ft | 98 kts | 101° |
| 2026-05-07 18:30 | 48.07110 | -1.72564 | 234 ft | 163 kts | 101° |
| 2026-05-07 18:31 | 48.06897 | -1.70873 | 1030 ft | 167 kts | 101° |
| 2026-05-07 18:31 | 48.06676 | -1.69127 | 1920 ft | 172 kts | 101° |
| 2026-05-07 18:31 | 48.06468 | -1.67389 | 2780 ft | 169 kts | 102° |
| 2026-05-07 18:31 | 48.06262 | -1.65626 | 3450 ft | 175 kts | 103° |
| 2026-05-07 18:32 | 48.06045 | -1.63800 | 3996 ft | 187 kts | 103° |
| 2026-05-07 18:32 | 48.05788 | -1.61816 | 4475 ft | 205 kts | 104° |
| 2026-05-07 18:32 | 48.05621 | -1.59572 | 4918 ft | 233 kts | 87° |
| 2026-05-07 18:32 | 48.06266 | -1.57196 | 5392 ft | 265 kts | 52° |
| 2026-05-07 18:33 | 48.07655 | -1.55258 | 6188 ft | 278 kts | 42° |
| 2026-05-07 18:33 | 48.09130 | -1.53331 | 7140 ft | 284 kts | 42° |
| 2026-05-07 18:33 | 48.10629 | -1.51360 | 8108 ft | 288 kts | 42° |
| 2026-05-07 18:33 | 48.12132 | -1.49375 | 9078 ft | 292 kts | 42° |
| 2026-05-07 18:34 | 48.13744 | -1.47602 | 9990 ft | 297 kts | 24° |
| 2026-05-07 18:34 | 48.15799 | -1.46902 | 10579 ft | 311 kts | 356° |
| 2026-05-07 18:34 | 48.17967 | -1.47499 | 11043 ft | 328 kts | 345° |
| 2026-05-07 18:34 | 48.20264 | -1.47832 | 11797 ft | 336 kts | 358° |
| 2026-05-07 18:35 | 48.22624 | -1.47780 | 12647 ft | 341 kts | 0° |
| 2026-05-07 18:35 | 48.25012 | -1.47623 | 13499 ft | 345 kts | 2° |
| 2026-05-07 18:35 | 48.27427 | -1.47397 | 14258 ft | 350 kts | 2° |
| 2026-05-07 18:35 | 48.29876 | -1.47139 | 14967 ft | 355 kts | 3° |
| 2026-05-07 18:36 | 48.32361 | -1.46872 | 15671 ft | 360 kts | 3° |
| 2026-05-07 18:36 | 48.34875 | -1.46608 | 16371 ft | 365 kts | 2° |
| 2026-05-07 18:36 | 48.37396 | -1.46356 | 17057 ft | 369 kts | 2° |
| 2026-05-07 18:36 | 48.39134 | -1.46217 | 17520 ft | 372 kts | 359° |
| 2026-05-07 18:37 | 48.42592 | -1.46434 | 18408 ft | 378 kts | 355° |
| 2026-05-07 18:37 | 48.44378 | -1.46570 | 18834 ft | 381 kts | 355° |
| 2026-05-07 18:37 | 48.47911 | -1.46831 | 19687 ft | 385 kts | 355° |
| 2026-05-07 18:37 | 48.49688 | -1.46963 | 20108 ft | 387 kts | 355° |
| 2026-05-07 18:38 | 48.52392 | -1.47164 | 20743 ft | 391 kts | 355° |
| 2026-05-07 18:38 | 48.55130 | -1.47364 | 21381 ft | 394 kts | 355° |
| 2026-05-07 18:38 | 48.57891 | -1.47561 | 22014 ft | 398 kts | 355° |
| 2026-05-07 18:38 | 48.60668 | -1.47761 | 22638 ft | 401 kts | 355° |
| 2026-05-07 18:39 | 48.63441 | -1.47962 | 23250 ft | 405 kts | 355° |
| 2026-05-07 18:39 | 48.66267 | -1.48167 | 23811 ft | 409 kts | 355° |
| 2026-05-07 18:39 | 48.69088 | -1.48376 | 24319 ft | 412 kts | 355° |
| 2026-05-07 18:39 | 48.71958 | -1.48591 | 24832 ft | 415 kts | 355° |
| 2026-05-07 18:40 | 48.74857 | -1.48807 | 25340 ft | 418 kts | 355° |
| 2026-05-07 18:40 | 48.77760 | -1.49022 | 25829 ft | 420 kts | 355° |
| 2026-05-07 18:40 | 48.80694 | -1.49235 | 26319 ft | 423 kts | 355° |
| 2026-05-07 18:40 | 48.83614 | -1.49449 | 26795 ft | 426 kts | 355° |
| 2026-05-07 18:41 | 48.86548 | -1.49665 | 27270 ft | 428 kts | 355° |
| 2026-05-07 18:41 | 48.89522 | -1.49931 | 27733 ft | 430 kts | 351° |
| 2026-05-07 18:41 | 48.92477 | -1.50706 | 27975 ft | 429 kts | 345° |
| 2026-05-07 18:41 | 48.95358 | -1.51630 | 28004 ft | 414 kts | 345° |
| 2026-05-07 18:42 | 48.98108 | -1.52512 | 28012 ft | 400 kts | 345° |
| 2026-05-07 18:42 | 49.03494 | -1.54249 | 28009 ft | 393 kts | 345° |
| 2026-05-07 18:43 | 49.08848 | -1.55979 | 28018 ft | 392 kts | 345° |
| 2026-05-07 18:43 | 49.14258 | -1.56609 | 28017 ft | 396 kts | 0° |
| 2026-05-07 18:44 | 49.19763 | -1.56219 | 28018 ft | 396 kts | 0° |
| 2026-05-07 18:44 | 49.25277 | -1.55802 | 28019 ft | 396 kts | 0° |
| 2026-05-07 18:45 | 49.30993 | -1.55374 | 28024 ft | 396 kts | 0° |
| 2026-05-07 18:45 | 49.36494 | -1.54968 | 28026 ft | 395 kts | 0° |
| 2026-05-07 18:46 | 49.41964 | -1.54564 | 28025 ft | 395 kts | 0° |
| 2026-05-07 18:46 | 49.47472 | -1.54153 | 28024 ft | 395 kts | 0° |
| 2026-05-07 18:47 | 49.52965 | -1.53749 | 28031 ft | 395 kts | 0° |
| 2026-05-07 18:47 | 49.58428 | -1.53346 | 28029 ft | 395 kts | 1° |
| 2026-05-07 18:48 | 49.63918 | -1.52927 | 28024 ft | 395 kts | 1° |
| 2026-05-07 18:48 | 49.69403 | -1.52515 | 28022 ft | 394 kts | 0° |
| 2026-05-07 18:49 | 49.74855 | -1.52115 | 28028 ft | 394 kts | 1° |
| 2026-05-07 18:49 | 49.80342 | -1.51703 | 28025 ft | 395 kts | 1° |
| 2026-05-07 18:50 | 49.85840 | -1.51285 | 28023 ft | 395 kts | 1° |
| 2026-05-07 18:50 | 49.91322 | -1.50867 | 28025 ft | 395 kts | 1° |
| 2026-05-07 18:51 | 49.96816 | -1.50452 | 28032 ft | 395 kts | 1° |
| 2026-05-07 18:51 | 50.02212 | -1.49147 | 28025 ft | 397 kts | 16° |
| 2026-05-07 18:52 | 50.07487 | -1.46551 | 28025 ft | 397 kts | 16° |
| 2026-05-07 18:52 | 50.10162 | -1.45239 | 28044 ft | 411 kts | 16° |
| 2026-05-07 18:52 | 50.12939 | -1.43880 | 28041 ft | 426 kts | 16° |
| 2026-05-07 18:53 | 50.18625 | -1.41104 | 28047 ft | 433 kts | 16° |
| 2026-05-07 18:53 | 50.21500 | -1.39699 | 27928 ft | 426 kts | 16° |
| 2026-05-07 18:53 | 50.24308 | -1.38323 | 27138 ft | 418 kts | 16° |
| 2026-05-07 18:53 | 50.27052 | -1.36971 | 26334 ft | 412 kts | 16° |
| 2026-05-07 18:54 | 50.29769 | -1.35628 | 25555 ft | 407 kts | 16° |
| 2026-05-07 18:54 | 50.32453 | -1.34299 | 24808 ft | 402 kts | 16° |
| 2026-05-07 18:54 | 50.35110 | -1.32982 | 24081 ft | 398 kts | 16° |
| 2026-05-07 18:54 | 50.37697 | -1.31703 | 23317 ft | 394 kts | 16° |
| 2026-05-07 18:55 | 50.40305 | -1.30415 | 22506 ft | 389 kts | 16° |
| 2026-05-07 18:55 | 50.42878 | -1.29140 | 21763 ft | 384 kts | 16° |
| 2026-05-07 18:55 | 50.45383 | -1.27897 | 21233 ft | 373 kts | 16° |
| 2026-05-07 18:55 | 50.47817 | -1.26685 | 20809 ft | 360 kts | 16° |
| 2026-05-07 18:56 | 50.50093 | -1.25195 | 20405 ft | 352 kts | 28° |
| 2026-05-07 18:56 | 50.52097 | -1.23067 | 19982 ft | 351 kts | 39° |
| 2026-05-07 18:56 | 50.53967 | -1.20598 | 19570 ft | 350 kts | 39° |
| 2026-05-07 18:56 | 50.55817 | -1.18166 | 19165 ft | 349 kts | 39° |
| 2026-05-07 18:57 | 50.57677 | -1.15726 | 18755 ft | 348 kts | 39° |
| 2026-05-07 18:57 | 50.59535 | -1.13285 | 18350 ft | 347 kts | 39° |
| 2026-05-07 18:57 | 50.61380 | -1.10855 | 17913 ft | 345 kts | 39° |
| 2026-05-07 18:57 | 50.63217 | -1.08430 | 17519 ft | 343 kts | 39° |
| 2026-05-07 18:58 | 50.65040 | -1.06022 | 17133 ft | 341 kts | 40° |
| 2026-05-07 18:58 | 50.66696 | -1.03354 | 16742 ft | 339 kts | 51° |
| 2026-05-07 18:58 | 50.68151 | -1.00542 | 16367 ft | 337 kts | 51° |
| 2026-05-07 18:58 | 50.69628 | -0.97697 | 15995 ft | 335 kts | 51° |
| 2026-05-07 18:59 | 50.71106 | -0.94852 | 15620 ft | 333 kts | 51° |
| 2026-05-07 18:59 | 50.72568 | -0.92032 | 15246 ft | 332 kts | 51° |
| 2026-05-07 18:59 | 50.74024 | -0.89225 | 14883 ft | 330 kts | 51° |
| 2026-05-07 18:59 | 50.75474 | -0.86420 | 14512 ft | 329 kts | 51° |
| 2026-05-07 19:00 | 50.76902 | -0.83654 | 14147 ft | 328 kts | 51° |
| 2026-05-07 19:00 | 50.78363 | -0.80825 | 13762 ft | 327 kts | 51° |
| 2026-05-07 19:00 | 50.79788 | -0.78045 | 13364 ft | 324 kts | 53° |
| 2026-05-07 19:00 | 50.80907 | -0.75029 | 13072 ft | 319 kts | 68° |
| 2026-05-07 19:01 | 50.81542 | -0.71729 | 13057 ft | 312 kts | 80° |
| 2026-05-07 19:01 | 50.81932 | -0.68355 | 13057 ft | 311 kts | 81° |
| 2026-05-07 19:01 | 50.82328 | -0.64964 | 13060 ft | 311 kts | 81° |
| 2026-05-07 19:01 | 50.82717 | -0.61658 | 13060 ft | 311 kts | 81° |
| 2026-05-07 19:02 | 50.83112 | -0.58301 | 12945 ft | 309 kts | 81° |
| 2026-05-07 19:02 | 50.83506 | -0.54941 | 12551 ft | 308 kts | 81° |
| 2026-05-07 19:02 | 50.83892 | -0.51624 | 12188 ft | 307 kts | 81° |
| 2026-05-07 19:02 | 50.84275 | -0.48305 | 12042 ft | 306 kts | 81° |
| 2026-05-07 19:03 | 50.84655 | -0.44990 | 12055 ft | 307 kts | 81° |
| 2026-05-07 19:03 | 50.85034 | -0.41684 | 12057 ft | 308 kts | 81° |
| 2026-05-07 19:03 | 50.85413 | -0.38348 | 12057 ft | 308 kts | 81° |
| 2026-05-07 19:03 | 50.85790 | -0.35019 | 12056 ft | 307 kts | 81° |
| 2026-05-07 19:04 | 50.86168 | -0.31694 | 11767 ft | 305 kts | 80° |
| 2026-05-07 19:04 | 50.86546 | -0.28384 | 11389 ft | 304 kts | 80° |
| 2026-05-07 19:04 | 50.86919 | -0.25105 | 11087 ft | 303 kts | 80° |
| 2026-05-07 19:04 | 50.87288 | -0.21824 | 10833 ft | 302 kts | 80° |
| 2026-05-07 19:05 | 50.87654 | -0.18558 | 10468 ft | 301 kts | 80° |
| 2026-05-07 19:05 | 50.88008 | -0.15404 | 10313 ft | 291 kts | 80° |
| 2026-05-07 19:05 | 50.88356 | -0.12307 | 10178 ft | 277 kts | 80° |
| 2026-05-07 19:05 | 50.88704 | -0.09362 | 10066 ft | 269 kts | 76° |
| 2026-05-07 19:06 | 50.89615 | -0.06853 | 10057 ft | 265 kts | 39° |
| 2026-05-07 19:06 | 50.93029 | -0.05415 | 9398 ft | 258 kts | 0° |
| 2026-05-07 19:06 | 50.94803 | -0.05267 | 9128 ft | 253 kts | 0° |
| 2026-05-07 19:07 | 50.96554 | -0.05133 | 8806 ft | 251 kts | 0° |
| 2026-05-07 19:07 | 50.98276 | -0.05016 | 8471 ft | 249 kts | 0° |
| 2026-05-07 19:07 | 51.00005 | -0.04917 | 8130 ft | 247 kts | 359° |
| 2026-05-07 19:07 | 51.01649 | -0.05480 | 7781 ft | 242 kts | 329° |
| 2026-05-07 19:08 | 51.02843 | -0.07282 | 7426 ft | 237 kts | 298° |
| 2026-05-07 19:08 | 51.03231 | -0.09759 | 7100 ft | 233 kts | 265° |
| 2026-05-07 19:08 | 51.02913 | -0.12299 | 7055 ft | 237 kts | 258° |
| 2026-05-07 19:08 | 51.02656 | -0.14901 | 7054 ft | 238 kts | 262° |
| 2026-05-07 19:09 | 51.02434 | -0.17521 | 7055 ft | 240 kts | 262° |
| 2026-05-07 19:09 | 51.02215 | -0.20126 | 7059 ft | 239 kts | 262° |
| 2026-05-07 19:09 | 51.01993 | -0.22744 | 6946 ft | 237 kts | 262° |
| 2026-05-07 19:09 | 51.01769 | -0.25346 | 6576 ft | 238 kts | 262° |
| 2026-05-07 19:10 | 51.01620 | -0.27064 | 6315 ft | 238 kts | 262° |
| 2026-05-07 19:10 | 51.01391 | -0.29675 | 5916 ft | 239 kts | 262° |
| 2026-05-07 19:10 | 51.01088 | -0.33150 | 5397 ft | 240 kts | 262° |
| 2026-05-07 19:10 | 51.00934 | -0.34935 | 5157 ft | 240 kts | 262° |
| 2026-05-07 19:11 | 51.00710 | -0.37545 | 4811 ft | 239 kts | 262° |
| 2026-05-07 19:11 | 51.00491 | -0.40134 | 4449 ft | 239 kts | 262° |
| 2026-05-07 19:11 | 51.00300 | -0.42712 | 4270 ft | 230 kts | 269° |
| 2026-05-07 19:11 | 51.01001 | -0.45689 | 4080 ft | 215 kts | 316° |
| 2026-05-07 19:12 | 51.01804 | -0.46587 | 4001 ft | 206 kts | 335° |
| 2026-05-07 19:12 | 51.03095 | -0.47461 | 3886 ft | 199 kts | 340° |
| 2026-05-07 19:12 | 51.04368 | -0.48234 | 3726 ft | 194 kts | 341° |
| 2026-05-07 19:12 | 51.05610 | -0.48977 | 3514 ft | 192 kts | 341° |
| 2026-05-07 19:13 | 51.06863 | -0.49729 | 3287 ft | 192 kts | 341° |
| 2026-05-07 19:13 | 51.08128 | -0.50363 | 3066 ft | 190 kts | 358° |
| 2026-05-07 19:13 | 51.09380 | -0.49940 | 3022 ft | 187 kts | 27° |
| 2026-05-07 19:13 | 51.10378 | -0.48672 | 2999 ft | 184 kts | 53° |
| 2026-05-07 19:14 | 51.10931 | -0.46860 | 3004 ft | 182 kts | 77° |
| 2026-05-07 19:14 | 51.11205 | -0.44909 | 3006 ft | 182 kts | 78° |
| 2026-05-07 19:14 | 51.11482 | -0.42940 | 2972 ft | 182 kts | 78° |
| 2026-05-07 19:14 | 51.11754 | -0.40998 | 2798 ft | 181 kts | 78° |
| 2026-05-07 19:15 | 51.12026 | -0.39059 | 2573 ft | 177 kts | 78° |
| 2026-05-07 19:15 | 51.12286 | -0.37205 | 2343 ft | 166 kts | 79° |
| 2026-05-07 19:15 | 51.12533 | -0.35440 | 2123 ft | 163 kts | 79° |
| 2026-05-07 19:15 | 51.12778 | -0.33689 | 1902 ft | 161 kts | 79° |
| 2026-05-07 19:16 | 51.13020 | -0.31951 | 1687 ft | 160 kts | 79° |
| 2026-05-07 19:16 | 51.13262 | -0.30218 | 1462 ft | 160 kts | 79° |
| 2026-05-07 19:16 | 51.13503 | -0.28485 | 1237 ft | 160 kts | 79° |
| 2026-05-07 19:16 | 51.13743 | -0.26761 | 1014 ft | 160 kts | 79° |
| 2026-05-07 19:17 | 51.13984 | -0.25025 | 790 ft | 155 kts | 79° |
| 2026-05-07 19:17 | 51.14203 | -0.23450 | 591 ft | 143 kts | 79° |
| 2026-05-07 19:17 | 51.14411 | -0.21937 | 384 ft | 138 kts | 79° |
| 2026-05-07 19:17 | 51.14616 | -0.20464 | 242 ft | 136 kts | 79° |
| 2026-05-07 19:18 | 51.14804 | -0.19114 | 210 ft | 114 kts | 78° |
| 2026-05-07 19:18 | 51.14928 | -0.18168 | 204 ft | 66 kts | 78° |
| 2026-05-07 19:18 | 51.15015 | -0.17745 | 210 ft | 19 kts | 14° |
| 2026-05-07 19:18 | 51.15109 | -0.17754 | 205 ft | 8 kts | 354° |
| 2026-05-07 19:19 | 51.15164 | -0.17763 | 205 ft | 8 kts | 352° |
| 2026-05-07 19:19 | 51.15217 | -0.17775 | 207 ft | 0 kts | 352° |
| 2026-05-07 19:20 | 51.15229 | -0.17777 | 210 ft | 4 kts | 355° |
| 2026-05-07 19:20 | 51.15256 | -0.17743 | 212 ft | 6 kts | 59° |
| 2026-05-07 19:20 | 51.15270 | -0.17671 | 204 ft | 8 kts | 76° |
| 2026-05-07 19:21 | 51.15284 | -0.17570 | 204 ft | 11 kts | 78° |
| 2026-05-07 19:21 | 51.15300 | -0.17436 | 204 ft | 13 kts | 79° |
| 2026-05-07 19:21 | 51.15365 | -0.17370 | 204 ft | 13 kts | 347° |
| 2026-05-07 19:21 | 51.15457 | -0.17407 | 207 ft | 15 kts | 348° |
| 2026-05-07 19:22 | 51.15560 | -0.17439 | 206 ft | 15 kts | 348° |
| 2026-05-07 19:22 | 51.15668 | -0.17476 | 211 ft | 16 kts | 347° |
| 2026-05-07 19:22 | 51.15765 | -0.17458 | 212 ft | 14 kts | 64° |
| 2026-05-07 19:22 | 51.15791 | -0.17296 | 204 ft | 16 kts | 78° |
| 2026-05-07 19:23 | 51.15838 | -0.17234 | 204 ft | 8 kts | 344° |
| 2026-05-07 19:23 | 51.15878 | -0.17248 | 207 ft | 2 kts | 348° |